createdAt,value
2019-01-21T00:03:43.326Z,98.2
2019-01-21T00:08:43.338Z,98.2
2019-01-21T00:13:43.336Z,98.1
2019-01-21T00:18:43.343Z,97.1
2019-01-21T00:23:43.334Z,96.1
2019-01-21T00:28:43.345Z,95.1
2019-01-21T00:33:43.345Z,94.6
2019-01-21T00:38:43.354Z,94.3
2019-01-21T00:43:43.357Z,93.8
2019-01-21T00:48:43.366Z,93.1
2019-01-21T00:53:43.345Z,92.7
2019-01-21T00:58:43.357Z,92.8
2019-01-21T01:03:43.317Z,92.1
2019-01-21T01:08:43.369Z,91.9
2019-01-21T01:13:43.377Z,91.9
2019-01-21T01:18:43.370Z,91.6
2019-01-21T01:23:43.362Z,91.8
2019-01-21T01:28:43.373Z,92.4
2019-01-21T01:33:43.353Z,92.5
2019-01-21T01:38:43.374Z,92.8
2019-01-21T01:43:43.386Z,93
2019-01-21T01:48:43.539Z,93.4
2019-01-21T01:53:43.395Z,93.7
2019-01-21T01:58:43.578Z,93.6
2019-01-21T02:03:43.399Z,94
2019-01-21T02:08:43.377Z,93.6
2019-01-21T02:13:43.700Z,93.8
2019-01-21T02:18:43.391Z,93.4
2019-01-21T02:23:43.392Z,94
2019-01-21T02:28:43.435Z,93.9
2019-01-21T02:33:43.413Z,93.9
2019-01-21T02:38:43.434Z,94.4
2019-01-21T02:43:43.436Z,94.5
2019-01-21T02:48:43.425Z,94.3
2019-01-21T02:53:43.417Z,94.9
2019-01-21T02:58:43.448Z,94.5
2019-01-21T03:03:43.426Z,94.4
2019-01-21T03:08:43.428Z,94.6
2019-01-21T03:13:43.701Z,94.2
2019-01-21T03:18:43.971Z,94.5
2019-01-21T03:23:43.432Z,94.6
2019-01-21T03:28:43.435Z,94
2019-01-21T03:33:43.446Z,93.7
2019-01-21T03:38:43.417Z,93
2019-01-21T03:43:43.448Z,92.7
2019-01-21T03:48:43.469Z,92.6
2019-01-21T03:53:43.466Z,92.6
2019-01-21T03:58:43.481Z,92.1
2019-01-21T04:03:43.453Z,92.3
2019-01-21T04:08:43.449Z,91.5
2019-01-21T04:13:43.458Z,91.3
2019-01-21T04:18:43.470Z,91.2
2019-01-21T04:23:43.429Z,91.2
2019-01-21T04:28:43.466Z,91.3
2019-01-21T04:33:43.479Z,91.3
2019-01-21T04:38:43.776Z,91.3
2019-01-21T04:43:43.490Z,90.6
2019-01-21T04:48:43.479Z,90.9
2019-01-21T04:53:43.475Z,90.9
2019-01-21T04:58:43.484Z,91
2019-01-21T05:03:43.845Z,90.8
2019-01-21T05:08:43.515Z,91.1
2019-01-21T05:13:43.492Z,90.6
2019-01-21T05:18:43.510Z,91.1
2019-01-21T05:23:43.513Z,91.1
2019-01-21T05:28:43.727Z,91
2019-01-21T05:33:43.539Z,91.3
2019-01-21T05:38:43.524Z,91.2
2019-01-21T05:43:43.483Z,91.1
2019-01-21T05:48:49.360Z,91.2
2019-01-21T05:53:43.525Z,91
2019-01-21T05:58:43.535Z,91.3
2019-01-21T06:03:43.514Z,92.8
2019-01-21T06:08:43.523Z,91.3
2019-01-21T06:13:43.557Z,91.8
2019-01-21T06:18:43.538Z,92.5
2019-01-21T06:23:43.523Z,92.2
2019-01-21T06:28:43.572Z,91.5
2019-01-21T06:33:43.509Z,92
2019-01-21T06:38:43.525Z,91.9
2019-01-21T06:43:43.547Z,92.6
2019-01-21T06:48:43.528Z,92.7
2019-01-21T06:53:43.543Z,92.8
2019-01-21T06:58:43.551Z,93.5
2019-01-21T07:03:43.551Z,93.5
2019-01-21T07:08:43.566Z,93.4
2019-01-21T07:13:43.557Z,93.7
2019-01-21T07:18:43.550Z,93.3
2019-01-21T07:23:43.584Z,93.5
2019-01-21T07:28:43.574Z,94
2019-01-21T07:33:43.587Z,94.3
2019-01-21T07:38:43.560Z,94.4
2019-01-21T07:43:43.568Z,93.9
2019-01-21T07:48:43.682Z,93.2
2019-01-21T07:53:43.575Z,92.2
2019-01-21T07:58:43.568Z,92.7
2019-01-21T08:03:43.605Z,91.5
2019-01-21T08:08:43.577Z,91.5
2019-01-21T08:13:43.572Z,90.9
2019-01-21T08:18:43.593Z,91
2019-01-21T08:23:43.589Z,90.1
2019-01-21T08:28:43.601Z,89.7
2019-01-21T08:33:43.607Z,89.9
2019-01-21T08:38:43.587Z,89.5
2019-01-21T08:43:43.625Z,88.7
2019-01-21T08:48:43.595Z,88.9
2019-01-21T08:53:43.611Z,88.5
2019-01-21T08:58:43.591Z,88.3
2019-01-21T09:03:43.603Z,88.7
2019-01-21T09:08:43.627Z,88.4
2019-01-21T09:13:43.606Z,88.7
2019-01-21T09:18:43.639Z,88.7
2019-01-21T09:23:43.634Z,87
2019-01-21T09:28:43.638Z,86.6
2019-01-21T09:33:43.626Z,84.7
2019-01-21T09:38:43.673Z,85
2019-01-21T09:43:43.651Z,84.4
2019-01-21T09:48:43.643Z,83
2019-01-21T09:53:43.646Z,82.7
2019-01-21T09:58:43.647Z,82
2019-01-21T10:03:43.639Z,81.7
2019-01-21T10:08:43.644Z,81
2019-01-21T10:13:43.646Z,80.8
2019-01-21T10:18:43.674Z,80.4
2019-01-21T10:23:43.679Z,80.6
2019-01-21T10:28:43.650Z,79.8
2019-01-21T10:33:43.627Z,79.3
2019-01-21T10:38:43.708Z,77.9
2019-01-21T10:43:43.701Z,78.6
2019-01-21T10:48:43.765Z,77
2019-01-21T10:53:43.675Z,77.4
2019-01-21T10:58:43.677Z,78.2
2019-01-21T11:03:43.615Z,77.4
2019-01-21T11:08:43.682Z,76.5
2019-01-21T11:13:44.640Z,76.5
2019-01-21T11:18:43.686Z,75.6
2019-01-21T11:23:43.683Z,76
2019-01-21T11:28:43.690Z,75.7
2019-01-21T11:33:43.687Z,75.1
2019-01-21T11:38:43.717Z,74.9
2019-01-21T11:43:43.662Z,73.2
2019-01-21T11:48:43.728Z,74.2
2019-01-21T11:53:43.676Z,73.8
2019-01-21T11:58:43.672Z,74
2019-01-21T12:03:43.725Z,74.7
2019-01-21T12:08:43.725Z,72.4
2019-01-21T12:13:43.864Z,71.7
2019-01-21T12:18:43.668Z,72.8
2019-01-21T12:23:43.716Z,73.4
2019-01-21T12:28:43.715Z,72.4
2019-01-21T12:33:43.712Z,72.5
2019-01-21T12:38:43.746Z,72.8
2019-01-21T12:43:43.711Z,72.2
2019-01-21T12:48:43.740Z,71.7
2019-01-21T12:53:43.738Z,72
2019-01-21T12:58:43.734Z,71.8
2019-01-21T13:03:43.739Z,72.9
2019-01-21T13:08:43.773Z,72.6
2019-01-21T13:13:43.753Z,72
2019-01-21T13:18:43.699Z,71.7
2019-01-21T13:23:43.767Z,72.2
2019-01-21T13:28:43.777Z,71.8
2019-01-21T13:33:43.761Z,71.8
2019-01-21T13:38:43.743Z,71.8
2019-01-21T13:43:43.747Z,71.3
2019-01-21T13:48:43.775Z,71.5
2019-01-21T13:53:43.757Z,70.5
2019-01-21T13:58:43.755Z,71.7
2019-01-21T14:03:43.772Z,71.6
2019-01-21T14:08:43.781Z,71.7
2019-01-21T14:13:43.779Z,71.4
2019-01-21T14:18:43.750Z,71.8
2019-01-21T14:23:43.786Z,72.2
2019-01-21T14:28:43.771Z,72.6
2019-01-21T14:33:43.791Z,72.1
2019-01-21T14:38:43.810Z,73.4
2019-01-21T14:43:43.785Z,73.7
2019-01-21T14:48:43.799Z,73.8
2019-01-21T14:53:43.844Z,73.8
2019-01-21T14:58:43.797Z,74.4
2019-01-21T15:03:43.890Z,75
2019-01-21T15:08:43.882Z,75.4
2019-01-21T15:13:43.831Z,75.9
2019-01-21T15:18:43.863Z,76.4
2019-01-21T15:23:43.858Z,76.7
2019-01-21T15:28:44.025Z,77.5
2019-01-21T15:33:43.851Z,77.7
2019-01-21T15:38:44.108Z,78.2
2019-01-21T15:43:44.395Z,78.5
2019-01-21T15:48:43.817Z,79.4
2019-01-21T15:53:43.911Z,79.4
2019-01-21T15:58:43.824Z,80.5
2019-01-21T16:03:43.828Z,80.5
2019-01-21T16:08:43.836Z,80.8
2019-01-21T16:13:43.864Z,80.9
2019-01-21T16:18:43.876Z,81.5
2019-01-21T16:23:43.848Z,82.9
2019-01-21T16:28:43.852Z,82.5
2019-01-21T16:33:44.557Z,82.8
2019-01-21T16:38:49.901Z,82.6
2019-01-21T16:43:43.880Z,84
2019-01-21T16:48:43.863Z,84
2019-01-21T16:53:43.855Z,84.9
2019-01-21T16:58:43.892Z,85.1
2019-01-21T17:03:46.416Z,85.1
2019-01-21T17:08:43.848Z,85
2019-01-21T17:13:45.266Z,85.1
2019-01-21T17:18:43.889Z,85.4
2019-01-21T17:23:43.909Z,85.8
2019-01-21T17:28:43.852Z,85.9
2019-01-21T17:33:43.892Z,86.2
2019-01-21T17:38:43.894Z,86.9
2019-01-21T17:43:43.904Z,86.8
2019-01-21T17:48:43.903Z,86.7
2019-01-21T17:53:43.911Z,88.3
2019-01-21T17:58:43.917Z,87.4
2019-01-21T18:03:43.920Z,87.1
2019-01-21T18:08:44.123Z,86.7
2019-01-21T18:13:43.975Z,89
2019-01-21T18:18:43.917Z,88.4
2019-01-21T18:23:43.906Z,87.9
2019-01-21T18:28:44.762Z,88.1
2019-01-21T18:33:43.933Z,87.8
2019-01-21T18:38:43.963Z,88.2
2019-01-21T18:43:43.929Z,88.3
2019-01-21T18:48:44.181Z,89.2
2019-01-21T18:53:43.973Z,89
2019-01-21T18:58:43.977Z,88.9
2019-01-21T19:03:43.993Z,90
2019-01-21T19:08:43.945Z,89.5
2019-01-21T19:13:43.947Z,90.7
2019-01-21T19:18:43.938Z,90.8
2019-01-21T19:23:44.036Z,91.2
2019-01-21T19:28:43.953Z,90.5
2019-01-21T19:33:44.104Z,90.1
2019-01-21T19:38:43.949Z,91
2019-01-21T19:43:43.980Z,90.1
2019-01-21T19:48:45.020Z,90.9
2019-01-21T19:53:43.972Z,92
2019-01-21T19:58:44.073Z,91.3
2019-01-21T20:03:43.926Z,91.7
2019-01-21T20:08:43.977Z,91.3
2019-01-21T20:13:43.990Z,93
2019-01-21T20:18:43.996Z,92.2
2019-01-21T20:23:43.975Z,91.6
2019-01-21T20:28:44.430Z,91.7
2019-01-21T20:33:43.947Z,91.8
2019-01-21T20:38:44.031Z,92.7
2019-01-21T20:43:44.014Z,92
2019-01-21T20:48:43.996Z,92.4
2019-01-21T20:53:43.999Z,95.5
2019-01-21T20:58:44.017Z,93.1
2019-01-21T21:03:44.027Z,92.5
2019-01-21T21:08:44.009Z,93.9
2019-01-21T21:13:44.009Z,93.2
2019-01-21T21:18:45.347Z,92.8
2019-01-21T21:23:44.016Z,93.4
2019-01-21T21:28:44.029Z,93.5
2019-01-21T21:33:44.120Z,93.1
2019-01-21T21:38:43.984Z,92.7
2019-01-21T21:43:44.034Z,93.2
2019-01-21T21:48:44.022Z,93
2019-01-21T21:53:44.079Z,94.3
2019-01-21T21:58:44.018Z,94.5
2019-01-21T22:03:44.043Z,93.3
2019-01-21T22:08:44.256Z,93.6
2019-01-21T22:13:44.333Z,93.7
2019-01-21T22:18:44.106Z,93.9
2019-01-21T22:23:44.054Z,94.8
2019-01-21T22:28:44.033Z,94.5
2019-01-21T22:33:44.057Z,94.4
2019-01-21T22:38:44.319Z,94.1
2019-01-21T22:43:44.056Z,94.5
2019-01-21T22:48:44.066Z,95.2
2019-01-21T22:53:44.678Z,97.2
2019-01-21T22:58:44.012Z,95.3
2019-01-21T23:03:44.087Z,94.6
2019-01-21T23:08:44.289Z,94.3
2019-01-21T23:13:44.139Z,94.6
2019-01-21T23:18:44.074Z,94.9
2019-01-21T23:23:44.087Z,94.5
2019-01-21T23:28:44.080Z,94
2019-01-21T23:33:44.092Z,96.7
2019-01-21T23:38:44.081Z,94.5
2019-01-21T23:43:44.078Z,93.4
2019-01-21T23:48:44.082Z,92.8
2019-01-21T23:53:44.084Z,93
2019-01-21T23:58:44.098Z,93.2
